sensor_id;sensor_type;location;lat;lon;timestamp;temperature;humidity
59128;DHT22;44912;52.754;5.994;2023-05-07T00:00:36;15.20;99.90
59128;DHT22;44912;52.754;5.994;2023-05-07T00:03:02;15.20;99.90
59128;DHT22;44912;52.754;5.994;2023-05-07T00:05:28;15.20;99.90
59128;DHT22;44912;52.754;5.994;2023-05-07T00:07:54;15.20;99.90
59128;DHT22;44912;52.754;5.994;2023-05-07T00:10:19;15.10;99.90
59128;DHT22;44912;52.754;5.994;2023-05-07T00:12:45;15.20;99.90
59128;DHT22;44912;52.754;5.994;2023-05-07T00:15:11;15.20;99.90
59128;DHT22;44912;52.754;5.994;2023-05-07T00:17:37;15.20;99.90
59128;DHT22;44912;52.754;5.994;2023-05-07T00:20:03;15.10;99.90
59128;DHT22;44912;52.754;5.994;2023-05-07T00:22:30;15.10;99.90
59128;DHT22;44912;52.754;5.994;2023-05-07T00:24:56;15.10;99.90
59128;DHT22;44912;52.754;5.994;2023-05-07T00:27:22;15.10;99.90
59128;DHT22;44912;52.754;5.994;2023-05-07T00:29:48;15.10;99.90
59128;DHT22;44912;52.754;5.994;2023-05-07T00:32:13;15.10;99.90
59128;DHT22;44912;52.754;5.994;2023-05-07T00:34:39;15.10;99.90
59128;DHT22;44912;52.754;5.994;2023-05-07T00:37:05;15.10;99.90
59128;DHT22;44912;52.754;5.994;2023-05-07T00:39:33;15.10;99.90
59128;DHT22;44912;52.754;5.994;2023-05-07T00:41:58;15.20;99.90
59128;DHT22;44912;52.754;5.994;2023-05-07T00:44:24;15.20;99.90
59128;DHT22;44912;52.754;5.994;2023-05-07T00:46:50;15.20;99.90
59128;DHT22;44912;52.754;5.994;2023-05-07T00:49:16;15.10;99.90
59128;DHT22;44912;52.754;5.994;2023-05-07T00:51:43;15.10;99.90
59128;DHT22;44912;52.754;5.994;2023-05-07T00:54:09;15.20;99.90
59128;DHT22;44912;52.754;5.994;2023-05-07T00:56:34;15.20;99.90
59128;DHT22;44912;52.754;5.994;2023-05-07T00:59:01;15.10;99.90
59128;DHT22;44912;52.754;5.994;2023-05-07T01:01:28;15.10;99.90
59128;DHT22;44912;52.754;5.994;2023-05-07T01:03:53;15.10;99.90
59128;DHT22;44912;52.754;5.994;2023-05-07T01:06:20;15.10;99.90
59128;DHT22;44912;52.754;5.994;2023-05-07T01:08:48;15.10;99.90
59128;DHT22;44912;52.754;5.994;2023-05-07T01:11:16;15.10;99.90
59128;DHT22;44912;52.754;5.994;2023-05-07T01:13:42;15.00;99.90
59128;DHT22;44912;52.754;5.994;2023-05-07T01:16:09;15.00;99.90
59128;DHT22;44912;52.754;5.994;2023-05-07T01:18:35;15.00;99.90
59128;DHT22;44912;52.754;5.994;2023-05-07T01:21:02;15.00;99.90
59128;DHT22;44912;52.754;5.994;2023-05-07T01:23:30;15.00;99.90
59128;DHT22;44912;52.754;5.994;2023-05-07T01:25:56;15.00;99.90
59128;DHT22;44912;52.754;5.994;2023-05-07T01:28:21;14.90;99.90
59128;DHT22;44912;52.754;5.994;2023-05-07T01:30:51;15.00;99.90
59128;DHT22;44912;52.754;5.994;2023-05-07T01:33:20;14.90;99.90
59128;DHT22;44912;52.754;5.994;2023-05-07T01:35:49;14.90;99.90
59128;DHT22;44912;52.754;5.994;2023-05-07T01:38:16;14.90;99.90
59128;DHT22;44912;52.754;5.994;2023-05-07T01:40:41;14.80;99.90
59128;DHT22;44912;52.754;5.994;2023-05-07T01:43:08;14.80;99.90
59128;DHT22;44912;52.754;5.994;2023-05-07T01:45:35;14.80;99.90
59128;DHT22;44912;52.754;5.994;2023-05-07T01:48:02;14.80;99.90
59128;DHT22;44912;52.754;5.994;2023-05-07T01:50:28;14.80;99.90
59128;DHT22;44912;52.754;5.994;2023-05-07T01:52:55;14.70;99.90
59128;DHT22;44912;52.754;5.994;2023-05-07T01:55:21;14.80;99.90
59128;DHT22;44912;52.754;5.994;2023-05-07T01:57:47;14.80;99.90
59128;DHT22;44912;52.754;5.994;2023-05-07T02:00:12;14.70;99.90
59128;DHT22;44912;52.754;5.994;2023-05-07T02:02:38;14.70;99.90
59128;DHT22;44912;52.754;5.994;2023-05-07T02:05:04;14.70;99.90
59128;DHT22;44912;52.754;5.994;2023-05-07T02:07:30;14.70;99.90
59128;DHT22;44912;52.754;5.994;2023-05-07T02:09:55;14.60;99.90
59128;DHT22;44912;52.754;5.994;2023-05-07T02:12:22;14.60;99.90
59128;DHT22;44912;52.754;5.994;2023-05-07T02:14:47;14.60;99.90
59128;DHT22;44912;52.754;5.994;2023-05-07T02:17:13;14.60;99.90
59128;DHT22;44912;52.754;5.994;2023-05-07T02:19:39;14.50;99.90
59128;DHT22;44912;52.754;5.994;2023-05-07T02:22:04;14.50;99.90
59128;DHT22;44912;52.754;5.994;2023-05-07T02:24:30;14.50;99.90
59128;DHT22;44912;52.754;5.994;2023-05-07T02:26:55;14.50;99.90
59128;DHT22;44912;52.754;5.994;2023-05-07T02:29:21;14.40;99.90
59128;DHT22;44912;52.754;5.994;2023-05-07T02:31:46;14.40;99.90
59128;DHT22;44912;52.754;5.994;2023-05-07T02:34:16;14.40;99.90
59128;DHT22;44912;52.754;5.994;2023-05-07T02:36:42;14.40;99.90
59128;DHT22;44912;52.754;5.994;2023-05-07T02:39:07;14.40;99.90
59128;DHT22;44912;52.754;5.994;2023-05-07T02:41:33;14.30;99.90
59128;DHT22;44912;52.754;5.994;2023-05-07T02:43:58;14.30;99.90
59128;DHT22;44912;52.754;5.994;2023-05-07T02:46:24;14.30;99.90
59128;DHT22;44912;52.754;5.994;2023-05-07T02:48:49;14.20;99.90
59128;DHT22;44912;52.754;5.994;2023-05-07T02:51:19;14.20;99.90
59128;DHT22;44912;52.754;5.994;2023-05-07T02:53:45;14.20;99.90
59128;DHT22;44912;52.754;5.994;2023-05-07T02:56:11;14.20;99.90
59128;DHT22;44912;52.754;5.994;2023-05-07T02:58:37;14.10;99.90
59128;DHT22;44912;52.754;5.994;2023-05-07T03:01:05;14.10;99.90
59128;DHT22;44912;52.754;5.994;2023-05-07T03:03:30;14.10;99.90
59128;DHT22;44912;52.754;5.994;2023-05-07T03:05:56;14.10;99.90
59128;DHT22;44912;52.754;5.994;2023-05-07T03:08:21;14.00;99.90
59128;DHT22;44912;52.754;5.994;2023-05-07T03:10:47;13.90;99.90
59128;DHT22;44912;52.754;5.994;2023-05-07T03:13:12;14.00;99.90
59128;DHT22;44912;52.754;5.994;2023-05-07T03:15:38;14.00;99.90
59128;DHT22;44912;52.754;5.994;2023-05-07T03:18:04;14.00;99.90
59128;DHT22;44912;52.754;5.994;2023-05-07T03:20:29;14.00;99.90
59128;DHT22;44912;52.754;5.994;2023-05-07T03:22:55;13.90;99.90
59128;DHT22;44912;52.754;5.994;2023-05-07T03:25:21;13.90;99.90
59128;DHT22;44912;52.754;5.994;2023-05-07T03:27:46;13.90;99.90
59128;DHT22;44912;52.754;5.994;2023-05-07T03:30:12;13.80;99.90
59128;DHT22;44912;52.754;5.994;2023-05-07T03:32:38;13.80;99.90
59128;DHT22;44912;52.754;5.994;2023-05-07T03:35:03;13.70;99.90
59128;DHT22;44912;52.754;5.994;2023-05-07T03:37:29;13.70;99.90
59128;DHT22;44912;52.754;5.994;2023-05-07T03:39:55;13.80;99.90
59128;DHT22;44912;52.754;5.994;2023-05-07T03:42:21;13.60;99.90
59128;DHT22;44912;52.754;5.994;2023-05-07T03:44:46;13.60;99.90
59128;DHT22;44912;52.754;5.994;2023-05-07T03:47:12;13.50;99.90
59128;DHT22;44912;52.754;5.994;2023-05-07T03:49:39;13.50;99.90
59128;DHT22;44912;52.754;5.994;2023-05-07T03:52:05;13.50;99.90
59128;DHT22;44912;52.754;5.994;2023-05-07T03:54:31;13.40;99.90
59128;DHT22;44912;52.754;5.994;2023-05-07T03:56:56;13.40;99.90
59128;DHT22;44912;52.754;5.994;2023-05-07T03:59:22;13.30;99.90
59128;DHT22;44912;52.754;5.994;2023-05-07T04:01:47;13.30;99.90
59128;DHT22;44912;52.754;5.994;2023-05-07T04:04:14;13.20;99.90
59128;DHT22;44912;52.754;5.994;2023-05-07T04:06:40;13.20;99.90
59128;DHT22;44912;52.754;5.994;2023-05-07T04:09:06;13.10;99.90
59128;DHT22;44912;52.754;5.994;2023-05-07T04:11:32;13.10;99.90
59128;DHT22;44912;52.754;5.994;2023-05-07T04:13:57;13.10;99.90
59128;DHT22;44912;52.754;5.994;2023-05-07T04:16:23;13.10;99.90
59128;DHT22;44912;52.754;5.994;2023-05-07T04:18:49;13.10;99.90
59128;DHT22;44912;52.754;5.994;2023-05-07T04:21:19;13.00;99.90
59128;DHT22;44912;52.754;5.994;2023-05-07T04:23:46;13.00;99.90
59128;DHT22;44912;52.754;5.994;2023-05-07T04:26:12;13.00;99.90
59128;DHT22;44912;52.754;5.994;2023-05-07T04:28:38;13.00;99.90
59128;DHT22;44912;52.754;5.994;2023-05-07T04:31:04;13.00;99.90
59128;DHT22;44912;52.754;5.994;2023-05-07T04:33:30;13.00;99.90
59128;DHT22;44912;52.754;5.994;2023-05-07T04:35:56;13.00;99.90
59128;DHT22;44912;52.754;5.994;2023-05-07T04:38:21;13.00;99.90
59128;DHT22;44912;52.754;5.994;2023-05-07T04:40:49;13.00;99.90
59128;DHT22;44912;52.754;5.994;2023-05-07T04:43:14;12.90;99.90
59128;DHT22;44912;52.754;5.994;2023-05-07T04:45:40;12.90;99.90
59128;DHT22;44912;52.754;5.994;2023-05-07T04:48:07;12.90;99.90
59128;DHT22;44912;52.754;5.994;2023-05-07T04:50:32;12.90;99.90
59128;DHT22;44912;52.754;5.994;2023-05-07T04:52:58;12.90;99.90
59128;DHT22;44912;52.754;5.994;2023-05-07T04:55:23;12.90;99.90
59128;DHT22;44912;52.754;5.994;2023-05-07T04:57:49;12.90;99.90
59128;DHT22;44912;52.754;5.994;2023-05-07T05:00:15;12.90;99.90
59128;DHT22;44912;52.754;5.994;2023-05-07T05:02:42;12.80;99.90
59128;DHT22;44912;52.754;5.994;2023-05-07T05:05:08;12.90;99.90
59128;DHT22;44912;52.754;5.994;2023-05-07T05:07:33;12.80;99.90
59128;DHT22;44912;52.754;5.994;2023-05-07T05:09:59;12.90;99.90
59128;DHT22;44912;52.754;5.994;2023-05-07T05:12:25;12.80;99.90
59128;DHT22;44912;52.754;5.994;2023-05-07T05:14:50;12.80;99.90
59128;DHT22;44912;52.754;5.994;2023-05-07T05:17:16;12.80;99.90
59128;DHT22;44912;52.754;5.994;2023-05-07T05:19:41;12.90;99.90
59128;DHT22;44912;52.754;5.994;2023-05-07T05:22:07;12.90;99.90
59128;DHT22;44912;52.754;5.994;2023-05-07T05:24:32;12.90;99.90
59128;DHT22;44912;52.754;5.994;2023-05-07T05:26:58;12.80;99.90
59128;DHT22;44912;52.754;5.994;2023-05-07T05:29:26;12.90;99.90
59128;DHT22;44912;52.754;5.994;2023-05-07T05:31:52;12.90;99.90
59128;DHT22;44912;52.754;5.994;2023-05-07T05:34:17;12.80;99.90
59128;DHT22;44912;52.754;5.994;2023-05-07T05:36:44;12.80;99.90
59128;DHT22;44912;52.754;5.994;2023-05-07T05:39:10;12.90;99.90
59128;DHT22;44912;52.754;5.994;2023-05-07T05:41:36;12.90;99.90
59128;DHT22;44912;52.754;5.994;2023-05-07T05:44:01;12.90;99.90
59128;DHT22;44912;52.754;5.994;2023-05-07T05:46:27;12.90;99.90
59128;DHT22;44912;52.754;5.994;2023-05-07T05:48:52;12.90;99.90
59128;DHT22;44912;52.754;5.994;2023-05-07T05:51:18;12.90;99.90
59128;DHT22;44912;52.754;5.994;2023-05-07T05:53:43;12.80;99.90
59128;DHT22;44912;52.754;5.994;2023-05-07T05:56:09;12.80;99.90
59128;DHT22;44912;52.754;5.994;2023-05-07T05:58:34;12.90;99.90
59128;DHT22;44912;52.754;5.994;2023-05-07T06:01:00;12.90;99.90
59128;DHT22;44912;52.754;5.994;2023-05-07T06:03:28;12.90;99.90
59128;DHT22;44912;52.754;5.994;2023-05-07T06:05:53;13.00;99.90
59128;DHT22;44912;52.754;5.994;2023-05-07T06:08:19;13.00;99.90
59128;DHT22;44912;52.754;5.994;2023-05-07T06:10:45;13.00;99.90
59128;DHT22;44912;52.754;5.994;2023-05-07T06:13:10;13.10;99.90
59128;DHT22;44912;52.754;5.994;2023-05-07T06:15:36;13.10;99.90
59128;DHT22;44912;52.754;5.994;2023-05-07T06:18:02;13.20;99.90
59128;DHT22;44912;52.754;5.994;2023-05-07T06:20:27;13.20;99.90
59128;DHT22;44912;52.754;5.994;2023-05-07T06:22:53;13.20;99.90
59128;DHT22;44912;52.754;5.994;2023-05-07T06:25:18;13.30;99.90
59128;DHT22;44912;52.754;5.994;2023-05-07T06:27:44;13.30;99.90
59128;DHT22;44912;52.754;5.994;2023-05-07T06:30:10;13.30;99.90
59128;DHT22;44912;52.754;5.994;2023-05-07T06:32:36;13.40;99.90
59128;DHT22;44912;52.754;5.994;2023-05-07T06:35:02;13.40;99.90
59128;DHT22;44912;52.754;5.994;2023-05-07T06:37:27;13.40;99.90
59128;DHT22;44912;52.754;5.994;2023-05-07T06:39:53;13.40;99.90
59128;DHT22;44912;52.754;5.994;2023-05-07T06:42:18;13.40;99.90
59128;DHT22;44912;52.754;5.994;2023-05-07T06:44:44;13.40;99.90
59128;DHT22;44912;52.754;5.994;2023-05-07T06:47:09;13.40;99.90
59128;DHT22;44912;52.754;5.994;2023-05-07T06:49:35;13.50;99.90
59128;DHT22;44912;52.754;5.994;2023-05-07T06:52:00;13.50;99.90
59128;DHT22;44912;52.754;5.994;2023-05-07T06:54:26;13.60;99.90
59128;DHT22;44912;52.754;5.994;2023-05-07T06:56:51;13.60;99.90
59128;DHT22;44912;52.754;5.994;2023-05-07T06:59:17;13.60;99.90
59128;DHT22;44912;52.754;5.994;2023-05-07T07:01:42;13.70;99.90
59128;DHT22;44912;52.754;5.994;2023-05-07T07:04:08;13.70;99.90
59128;DHT22;44912;52.754;5.994;2023-05-07T07:06:34;13.80;99.90
59128;DHT22;44912;52.754;5.994;2023-05-07T07:08:59;13.80;99.90
59128;DHT22;44912;52.754;5.994;2023-05-07T07:11:25;13.90;99.90
59128;DHT22;44912;52.754;5.994;2023-05-07T07:13:51;13.90;99.90
59128;DHT22;44912;52.754;5.994;2023-05-07T07:16:16;13.90;99.90
59128;DHT22;44912;52.754;5.994;2023-05-07T07:18:42;14.00;99.90
59128;DHT22;44912;52.754;5.994;2023-05-07T07:21:08;14.00;99.90
59128;DHT22;44912;52.754;5.994;2023-05-07T07:23:33;14.10;99.90
59128;DHT22;44912;52.754;5.994;2023-05-07T07:25:59;14.20;99.90
59128;DHT22;44912;52.754;5.994;2023-05-07T07:28:24;14.20;99.90
59128;DHT22;44912;52.754;5.994;2023-05-07T07:30:50;14.30;99.90
59128;DHT22;44912;52.754;5.994;2023-05-07T07:33:16;14.40;99.90
59128;DHT22;44912;52.754;5.994;2023-05-07T07:35:41;14.40;99.90
59128;DHT22;44912;52.754;5.994;2023-05-07T07:38:07;14.50;99.90
59128;DHT22;44912;52.754;5.994;2023-05-07T07:40:34;14.60;99.90
59128;DHT22;44912;52.754;5.994;2023-05-07T07:43:00;14.60;99.90
59128;DHT22;44912;52.754;5.994;2023-05-07T07:45:26;14.70;99.90
59128;DHT22;44912;52.754;5.994;2023-05-07T07:47:52;14.70;99.90
59128;DHT22;44912;52.754;5.994;2023-05-07T07:50:18;14.70;99.90
59128;DHT22;44912;52.754;5.994;2023-05-07T07:52:44;14.80;99.90
59128;DHT22;44912;52.754;5.994;2023-05-07T07:55:09;14.90;99.90
59128;DHT22;44912;52.754;5.994;2023-05-07T07:57:35;15.00;99.90
59128;DHT22;44912;52.754;5.994;2023-05-07T08:00:01;15.10;99.90
59128;DHT22;44912;52.754;5.994;2023-05-07T08:02:26;15.10;99.90
59128;DHT22;44912;52.754;5.994;2023-05-07T08:04:52;15.20;99.90
59128;DHT22;44912;52.754;5.994;2023-05-07T08:07:17;15.10;99.90
59128;DHT22;44912;52.754;5.994;2023-05-07T08:09:46;15.20;99.90
59128;DHT22;44912;52.754;5.994;2023-05-07T08:12:11;15.20;99.90
59128;DHT22;44912;52.754;5.994;2023-05-07T08:14:37;15.20;99.90
59128;DHT22;44912;52.754;5.994;2023-05-07T08:17:03;15.30;99.90
59128;DHT22;44912;52.754;5.994;2023-05-07T08:19:28;15.40;99.90
59128;DHT22;44912;52.754;5.994;2023-05-07T08:21:54;15.40;99.90
59128;DHT22;44912;52.754;5.994;2023-05-07T08:24:20;15.50;99.90
59128;DHT22;44912;52.754;5.994;2023-05-07T08:26:46;15.50;99.90
59128;DHT22;44912;52.754;5.994;2023-05-07T08:29:11;15.50;99.90
59128;DHT22;44912;52.754;5.994;2023-05-07T08:31:37;15.50;99.90
59128;DHT22;44912;52.754;5.994;2023-05-07T08:34:05;15.60;99.90
59128;DHT22;44912;52.754;5.994;2023-05-07T08:36:31;15.70;99.90
59128;DHT22;44912;52.754;5.994;2023-05-07T08:38:57;15.80;99.90
59128;DHT22;44912;52.754;5.994;2023-05-07T08:41:23;15.80;99.90
59128;DHT22;44912;52.754;5.994;2023-05-07T08:43:49;15.90;99.90
59128;DHT22;44912;52.754;5.994;2023-05-07T08:46:18;15.90;99.90
59128;DHT22;44912;52.754;5.994;2023-05-07T08:48:44;16.00;99.90
59128;DHT22;44912;52.754;5.994;2023-05-07T08:51:15;16.10;99.90
59128;DHT22;44912;52.754;5.994;2023-05-07T08:53:41;16.20;99.90
59128;DHT22;44912;52.754;5.994;2023-05-07T08:56:08;16.40;99.90
59128;DHT22;44912;52.754;5.994;2023-05-07T08:58:34;16.60;99.90
59128;DHT22;44912;52.754;5.994;2023-05-07T09:01:06;16.70;99.90
59128;DHT22;44912;52.754;5.994;2023-05-07T09:03:32;16.80;99.90
59128;DHT22;44912;52.754;5.994;2023-05-07T09:05:58;16.80;99.90
59128;DHT22;44912;52.754;5.994;2023-05-07T09:08:27;17.10;99.90
59128;DHT22;44912;52.754;5.994;2023-05-07T09:10:53;17.30;99.90
59128;DHT22;44912;52.754;5.994;2023-05-07T09:13:19;17.60;99.90
59128;DHT22;44912;52.754;5.994;2023-05-07T09:15:45;17.80;99.90
59128;DHT22;44912;52.754;5.994;2023-05-07T09:18:10;18.00;99.90
59128;DHT22;44912;52.754;5.994;2023-05-07T09:20:37;18.20;99.90
59128;DHT22;44912;52.754;5.994;2023-05-07T09:23:03;18.40;99.90
59128;DHT22;44912;52.754;5.994;2023-05-07T09:25:30;18.60;99.90
59128;DHT22;44912;52.754;5.994;2023-05-07T09:27:56;18.80;99.90
59128;DHT22;44912;52.754;5.994;2023-05-07T09:30:22;18.90;99.90
59128;DHT22;44912;52.754;5.994;2023-05-07T09:32:47;19.00;99.90
59128;DHT22;44912;52.754;5.994;2023-05-07T09:35:16;18.90;99.90
59128;DHT22;44912;52.754;5.994;2023-05-07T09:37:42;18.80;99.90
59128;DHT22;44912;52.754;5.994;2023-05-07T09:40:10;18.80;99.90
59128;DHT22;44912;52.754;5.994;2023-05-07T09:42:45;18.90;99.90
59128;DHT22;44912;52.754;5.994;2023-05-07T09:45:12;19.00;99.90
59128;DHT22;44912;52.754;5.994;2023-05-07T09:47:39;19.10;99.90
59128;DHT22;44912;52.754;5.994;2023-05-07T09:50:10;19.10;99.90
59128;DHT22;44912;52.754;5.994;2023-05-07T09:52:39;19.20;99.90
59128;DHT22;44912;52.754;5.994;2023-05-07T09:55:06;19.20;99.90
59128;DHT22;44912;52.754;5.994;2023-05-07T09:57:33;19.20;99.90
59128;DHT22;44912;52.754;5.994;2023-05-07T09:59:59;19.20;99.90
59128;DHT22;44912;52.754;5.994;2023-05-07T10:02:30;19.20;99.90
59128;DHT22;44912;52.754;5.994;2023-05-07T10:04:56;19.10;99.90
59128;DHT22;44912;52.754;5.994;2023-05-07T10:07:24;19.10;99.90
59128;DHT22;44912;52.754;5.994;2023-05-07T10:09:50;19.20;99.90
59128;DHT22;44912;52.754;5.994;2023-05-07T10:12:17;19.20;99.90
59128;DHT22;44912;52.754;5.994;2023-05-07T10:14:43;19.40;99.90
59128;DHT22;44912;52.754;5.994;2023-05-07T10:17:11;19.40;99.90
59128;DHT22;44912;52.754;5.994;2023-05-07T10:19:37;19.70;99.90
59128;DHT22;44912;52.754;5.994;2023-05-07T10:22:05;20.00;99.90
59128;DHT22;44912;52.754;5.994;2023-05-07T10:24:36;20.00;99.90
59128;DHT22;44912;52.754;5.994;2023-05-07T10:27:11;20.00;99.90
59128;DHT22;44912;52.754;5.994;2023-05-07T10:32:33;19.90;99.90
59128;DHT22;44912;52.754;5.994;2023-05-07T10:35:02;19.80;99.90
59128;DHT22;44912;52.754;5.994;2023-05-07T10:37:29;19.70;99.90
59128;DHT22;44912;52.754;5.994;2023-05-07T10:39:55;19.80;99.90
59128;DHT22;44912;52.754;5.994;2023-05-07T10:42:20;19.80;99.90
59128;DHT22;44912;52.754;5.994;2023-05-07T10:44:46;20.00;99.90
59128;DHT22;44912;52.754;5.994;2023-05-07T10:47:14;20.30;99.90
59128;DHT22;44912;52.754;5.994;2023-05-07T10:52:23;20.80;99.90
59128;DHT22;44912;52.754;5.994;2023-05-07T10:57:42;21.20;99.90
59128;DHT22;44912;52.754;5.994;2023-05-07T11:05:29;21.50;99.90
59128;DHT22;44912;52.754;5.994;2023-05-07T11:08:00;21.50;99.90
59128;DHT22;44912;52.754;5.994;2023-05-07T11:10:54;21.30;99.90
59128;DHT22;44912;52.754;5.994;2023-05-07T11:16:24;21.60;99.90
59128;DHT22;44912;52.754;5.994;2023-05-07T11:18:54;21.80;99.90
59128;DHT22;44912;52.754;5.994;2023-05-07T11:21:42;21.90;99.90
59128;DHT22;44912;52.754;5.994;2023-05-07T11:24:09;22.20;99.90
59128;DHT22;44912;52.754;5.994;2023-05-07T11:26:43;22.40;99.90
59128;DHT22;44912;52.754;5.994;2023-05-07T11:29:19;22.60;99.90
59128;DHT22;44912;52.754;5.994;2023-05-07T11:31:49;22.80;99.90
59128;DHT22;44912;52.754;5.994;2023-05-07T11:34:15;23.00;99.90
59128;DHT22;44912;52.754;5.994;2023-05-07T11:36:46;22.90;99.90
59128;DHT22;44912;52.754;5.994;2023-05-07T11:39:32;22.60;99.90
59128;DHT22;44912;52.754;5.994;2023-05-07T11:41:59;22.30;99.90
59128;DHT22;44912;52.754;5.994;2023-05-07T11:44:38;22.30;99.90
59128;DHT22;44912;52.754;5.994;2023-05-07T11:47:04;22.10;99.90
59128;DHT22;44912;52.754;5.994;2023-05-07T11:49:30;21.90;99.90
59128;DHT22;44912;52.754;5.994;2023-05-07T11:51:56;21.80;99.90
59128;DHT22;44912;52.754;5.994;2023-05-07T11:54:22;21.70;99.90
59128;DHT22;44912;52.754;5.994;2023-05-07T11:56:47;21.70;99.90
59128;DHT22;44912;52.754;5.994;2023-05-07T11:59:17;21.60;99.90
59128;DHT22;44912;52.754;5.994;2023-05-07T12:01:45;21.60;99.90
59128;DHT22;44912;52.754;5.994;2023-05-07T12:04:11;21.60;99.90
59128;DHT22;44912;52.754;5.994;2023-05-07T12:06:37;21.60;99.90
59128;DHT22;44912;52.754;5.994;2023-05-07T12:09:03;21.60;99.90
59128;DHT22;44912;52.754;5.994;2023-05-07T12:11:29;21.50;99.90
59128;DHT22;44912;52.754;5.994;2023-05-07T12:13:54;21.60;99.90
59128;DHT22;44912;52.754;5.994;2023-05-07T12:16:21;21.70;99.90
59128;DHT22;44912;52.754;5.994;2023-05-07T12:18:47;21.90;99.90
59128;DHT22;44912;52.754;5.994;2023-05-07T12:21:13;22.10;99.90
59128;DHT22;44912;52.754;5.994;2023-05-07T12:23:39;22.10;99.90
59128;DHT22;44912;52.754;5.994;2023-05-07T12:26:05;22.10;99.90
59128;DHT22;44912;52.754;5.994;2023-05-07T12:28:36;22.00;99.90
59128;DHT22;44912;52.754;5.994;2023-05-07T12:31:02;21.90;99.90
59128;DHT22;44912;52.754;5.994;2023-05-07T12:33:28;21.80;99.90
59128;DHT22;44912;52.754;5.994;2023-05-07T12:35:55;21.80;99.90
59128;DHT22;44912;52.754;5.994;2023-05-07T12:38:22;21.70;99.90
59128;DHT22;44912;52.754;5.994;2023-05-07T12:40:49;21.70;99.90
59128;DHT22;44912;52.754;5.994;2023-05-07T12:43:24;21.70;99.90
59128;DHT22;44912;52.754;5.994;2023-05-07T12:45:51;21.60;99.90
59128;DHT22;44912;52.754;5.994;2023-05-07T12:48:17;21.50;99.90
59128;DHT22;44912;52.754;5.994;2023-05-07T12:50:44;21.40;99.90
59128;DHT22;44912;52.754;5.994;2023-05-07T12:53:11;21.40;99.90
59128;DHT22;44912;52.754;5.994;2023-05-07T12:55:43;21.30;99.90
59128;DHT22;44912;52.754;5.994;2023-05-07T12:58:18;21.30;99.90
59128;DHT22;44912;52.754;5.994;2023-05-07T13:00:45;21.30;99.90
59128;DHT22;44912;52.754;5.994;2023-05-07T13:03:24;21.30;99.90
59128;DHT22;44912;52.754;5.994;2023-05-07T13:05:50;21.20;99.90
59128;DHT22;44912;52.754;5.994;2023-05-07T13:08:31;21.10;99.90
59128;DHT22;44912;52.754;5.994;2023-05-07T13:10:58;21.10;99.90
59128;DHT22;44912;52.754;5.994;2023-05-07T13:13:25;21.10;99.90
59128;DHT22;44912;52.754;5.994;2023-05-07T13:15:51;21.10;99.90
59128;DHT22;44912;52.754;5.994;2023-05-07T13:18:17;21.30;99.90
59128;DHT22;44912;52.754;5.994;2023-05-07T13:20:42;21.50;99.90
59128;DHT22;44912;52.754;5.994;2023-05-07T13:23:08;21.60;99.90
59128;DHT22;44912;52.754;5.994;2023-05-07T13:25:34;21.60;99.90
59128;DHT22;44912;52.754;5.994;2023-05-07T13:27:59;21.60;99.90
59128;DHT22;44912;52.754;5.994;2023-05-07T13:30:25;21.60;99.90
59128;DHT22;44912;52.754;5.994;2023-05-07T13:32:53;21.60;99.90
59128;DHT22;44912;52.754;5.994;2023-05-07T13:35:19;21.60;99.90
59128;DHT22;44912;52.754;5.994;2023-05-07T13:37:44;21.70;99.90
59128;DHT22;44912;52.754;5.994;2023-05-07T13:40:10;21.80;99.90
59128;DHT22;44912;52.754;5.994;2023-05-07T13:42:36;21.90;99.90
59128;DHT22;44912;52.754;5.994;2023-05-07T13:45:02;22.00;99.90
59128;DHT22;44912;52.754;5.994;2023-05-07T13:47:29;22.10;99.90
59128;DHT22;44912;52.754;5.994;2023-05-07T13:49:54;22.20;99.90
59128;DHT22;44912;52.754;5.994;2023-05-07T13:52:20;22.20;99.90
59128;DHT22;44912;52.754;5.994;2023-05-07T13:54:46;22.30;99.90
59128;DHT22;44912;52.754;5.994;2023-05-07T13:57:11;22.40;99.90
59128;DHT22;44912;52.754;5.994;2023-05-07T13:59:37;22.30;99.90
59128;DHT22;44912;52.754;5.994;2023-05-07T14:02:02;22.20;99.90
59128;DHT22;44912;52.754;5.994;2023-05-07T14:04:28;21.90;99.90
59128;DHT22;44912;52.754;5.994;2023-05-07T14:06:53;21.70;99.90
59128;DHT22;44912;52.754;5.994;2023-05-07T14:09:19;21.60;99.90
59128;DHT22;44912;52.754;5.994;2023-05-07T14:11:44;21.50;99.90
59128;DHT22;44912;52.754;5.994;2023-05-07T14:14:11;21.30;99.90
59128;DHT22;44912;52.754;5.994;2023-05-07T14:16:37;21.10;99.90
59128;DHT22;44912;52.754;5.994;2023-05-07T14:19:03;21.00;99.90
59128;DHT22;44912;52.754;5.994;2023-05-07T14:21:28;21.00;99.90
59128;DHT22;44912;52.754;5.994;2023-05-07T14:23:54;20.90;99.90
59128;DHT22;44912;52.754;5.994;2023-05-07T14:26:21;20.80;99.90
59128;DHT22;44912;52.754;5.994;2023-05-07T14:28:48;20.80;99.90
59128;DHT22;44912;52.754;5.994;2023-05-07T14:31:14;20.80;99.90
59128;DHT22;44912;52.754;5.994;2023-05-07T14:33:39;21.00;99.90
59128;DHT22;44912;52.754;5.994;2023-05-07T14:36:05;21.20;99.90
59128;DHT22;44912;52.754;5.994;2023-05-07T14:38:31;21.20;99.90
59128;DHT22;44912;52.754;5.994;2023-05-07T14:40:58;21.40;99.90
59128;DHT22;44912;52.754;5.994;2023-05-07T14:43:23;21.50;99.90
59128;DHT22;44912;52.754;5.994;2023-05-07T14:45:49;21.70;99.90
59128;DHT22;44912;52.754;5.994;2023-05-07T14:48:15;21.90;99.90
59128;DHT22;44912;52.754;5.994;2023-05-07T14:50:46;22.10;99.90
59128;DHT22;44912;52.754;5.994;2023-05-07T14:53:12;22.30;99.90
59128;DHT22;44912;52.754;5.994;2023-05-07T14:55:38;22.40;99.90
59128;DHT22;44912;52.754;5.994;2023-05-07T14:58:03;22.50;99.90
59128;DHT22;44912;52.754;5.994;2023-05-07T15:00:29;22.60;99.90
59128;DHT22;44912;52.754;5.994;2023-05-07T15:03:04;22.60;99.90
59128;DHT22;44912;52.754;5.994;2023-05-07T15:05:30;22.70;99.90
59128;DHT22;44912;52.754;5.994;2023-05-07T15:07:55;22.80;99.90
59128;DHT22;44912;52.754;5.994;2023-05-07T15:10:21;22.90;99.90
59128;DHT22;44912;52.754;5.994;2023-05-07T15:12:47;22.90;99.90
59128;DHT22;44912;52.754;5.994;2023-05-07T15:15:12;23.00;99.90
59128;DHT22;44912;52.754;5.994;2023-05-07T15:17:38;23.10;99.90
59128;DHT22;44912;52.754;5.994;2023-05-07T15:20:04;23.10;99.90
59128;DHT22;44912;52.754;5.994;2023-05-07T15:22:30;23.20;99.90
59128;DHT22;44912;52.754;5.994;2023-05-07T15:24:57;23.20;99.90
59128;DHT22;44912;52.754;5.994;2023-05-07T15:27:24;23.10;99.90
59128;DHT22;44912;52.754;5.994;2023-05-07T15:29:49;23.10;99.90
59128;DHT22;44912;52.754;5.994;2023-05-07T15:32:15;23.10;99.90
59128;DHT22;44912;52.754;5.994;2023-05-07T15:34:40;23.10;99.90
59128;DHT22;44912;52.754;5.994;2023-05-07T15:37:06;23.20;99.90
59128;DHT22;44912;52.754;5.994;2023-05-07T15:39:32;23.10;99.90
59128;DHT22;44912;52.754;5.994;2023-05-07T15:41:58;23.10;99.90